sensor_id;sensor_type;location;lat;lon;timestamp;P1;durP1;ratioP1;P2;durP2;ratioP2
52708;SDS011;38606;52.986;6.980;2024-03-23T00:53:03;33.47;;;5.45;;
52708;SDS011;38606;52.986;6.980;2024-03-23T00:55:29;45.53;;;7.72;;
52708;SDS011;38606;52.986;6.980;2024-03-23T00:57:55;42.55;;;7.15;;
52708;SDS011;38606;52.986;6.980;2024-03-23T01:00:20;41.30;;;6.28;;
52708;SDS011;38606;52.986;6.980;2024-03-23T01:02:46;35.70;;;5.18;;
52708;SDS011;38606;52.986;6.980;2024-03-23T01:05:12;29.10;;;5.53;;
52708;SDS011;38606;52.986;6.980;2024-03-23T01:07:37;36.45;;;5.63;;
52708;SDS011;38606;52.986;6.980;2024-03-23T01:10:03;37.42;;;5.72;;
52708;SDS011;38606;52.986;6.980;2024-03-23T01:12:29;30.80;;;5.50;;
52708;SDS011;38606;52.986;6.980;2024-03-23T01:14:55;38.40;;;5.88;;
52708;SDS011;38606;52.986;6.980;2024-03-23T01:17:20;33.78;;;4.88;;
52708;SDS011;38606;52.986;6.980;2024-03-23T01:19:46;34.38;;;5.55;;
52708;SDS011;38606;52.986;6.980;2024-03-23T01:22:12;34.00;;;7.20;;
52708;SDS011;38606;52.986;6.980;2024-03-23T01:24:37;29.30;;;5.07;;
52708;SDS011;38606;52.986;6.980;2024-03-23T01:27:03;33.63;;;5.30;;
52708;SDS011;38606;52.986;6.980;2024-03-23T01:29:29;33.47;;;4.55;;
52708;SDS011;38606;52.986;6.980;2024-03-23T01:31:55;41.20;;;5.63;;
52708;SDS011;38606;52.986;6.980;2024-03-23T01:34:21;34.55;;;4.93;;
52708;SDS011;38606;52.986;6.980;2024-03-23T01:36:47;33.47;;;4.88;;
52708;SDS011;38606;52.986;6.980;2024-03-23T01:39:13;38.67;;;4.95;;
52708;SDS011;38606;52.986;6.980;2024-03-23T01:41:39;31.08;;;4.45;;
52708;SDS011;38606;52.986;6.980;2024-03-23T01:44:07;30.92;;;5.43;;
52708;SDS011;38606;52.986;6.980;2024-03-23T01:46:34;32.35;;;5.88;;
52708;SDS011;38606;52.986;6.980;2024-03-23T01:49:03;38.35;;;5.30;;
52708;SDS011;38606;52.986;6.980;2024-03-23T01:51:30;33.88;;;4.85;;
52708;SDS011;38606;52.986;6.980;2024-03-23T01:53:57;29.25;;;4.82;;
52708;SDS011;38606;52.986;6.980;2024-03-23T01:56:26;28.27;;;4.82;;
52708;SDS011;38606;52.986;6.980;2024-03-23T01:58:51;35.65;;;4.10;;
52708;SDS011;38606;52.986;6.980;2024-03-23T02:01:17;38.47;;;5.35;;
52708;SDS011;38606;52.986;6.980;2024-03-23T02:03:44;30.08;;;5.60;;
52708;SDS011;38606;52.986;6.980;2024-03-23T02:06:10;35.60;;;5.57;;
52708;SDS011;38606;52.986;6.980;2024-03-23T02:08:35;37.15;;;5.00;;
52708;SDS011;38606;52.986;6.980;2024-03-23T02:11:01;33.72;;;4.70;;
52708;SDS011;38606;52.986;6.980;2024-03-23T02:13:27;31.73;;;4.70;;
52708;SDS011;38606;52.986;6.980;2024-03-23T02:15:53;36.42;;;6.00;;
52708;SDS011;38606;52.986;6.980;2024-03-23T02:18:18;30.58;;;4.75;;
52708;SDS011;38606;52.986;6.980;2024-03-23T02:20:44;26.92;;;4.88;;
52708;SDS011;38606;52.986;6.980;2024-03-23T02:23:16;33.65;;;5.22;;
52708;SDS011;38606;52.986;6.980;2024-03-23T02:25:45;35.90;;;6.95;;
52708;SDS011;38606;52.986;6.980;2024-03-23T02:28:11;30.30;;;5.03;;
52708;SDS011;38606;52.986;6.980;2024-03-23T02:30:37;29.67;;;5.47;;
52708;SDS011;38606;52.986;6.980;2024-03-23T02:33:03;27.75;;;5.40;;
52708;SDS011;38606;52.986;6.980;2024-03-23T02:35:29;34.20;;;5.20;;
52708;SDS011;38606;52.986;6.980;2024-03-23T02:37:55;34.90;;;5.03;;
52708;SDS011;38606;52.986;6.980;2024-03-23T02:40:22;34.10;;;5.35;;
52708;SDS011;38606;52.986;6.980;2024-03-23T02:42:49;37.28;;;5.20;;
52708;SDS011;38606;52.986;6.980;2024-03-23T02:45:15;28.65;;;4.63;;
52708;SDS011;38606;52.986;6.980;2024-03-23T02:47:40;33.63;;;5.63;;
52708;SDS011;38606;52.986;6.980;2024-03-23T02:50:06;40.90;;;5.40;;
52708;SDS011;38606;52.986;6.980;2024-03-23T02:52:33;31.85;;;5.63;;
52708;SDS011;38606;52.986;6.980;2024-03-23T02:54:59;30.60;;;4.50;;
52708;SDS011;38606;52.986;6.980;2024-03-23T02:57:26;30.75;;;6.13;;
52708;SDS011;38606;52.986;6.980;2024-03-23T02:59:52;39.58;;;6.18;;
52708;SDS011;38606;52.986;6.980;2024-03-23T03:02:18;32.88;;;5.85;;
52708;SDS011;38606;52.986;6.980;2024-03-23T03:04:45;35.97;;;5.13;;
52708;SDS011;38606;52.986;6.980;2024-03-23T03:07:11;29.92;;;5.03;;
52708;SDS011;38606;52.986;6.980;2024-03-23T03:09:36;30.95;;;5.30;;
52708;SDS011;38606;52.986;6.980;2024-03-23T03:12:04;31.67;;;6.05;;
52708;SDS011;38606;52.986;6.980;2024-03-23T03:14:30;32.88;;;5.13;;
52708;SDS011;38606;52.986;6.980;2024-03-23T03:16:56;31.73;;;4.95;;
52708;SDS011;38606;52.986;6.980;2024-03-23T03:19:22;41.45;;;5.60;;
52708;SDS011;38606;52.986;6.980;2024-03-23T03:21:47;35.97;;;5.20;;
52708;SDS011;38606;52.986;6.980;2024-03-23T03:24:13;39.25;;;5.93;;
52708;SDS011;38606;52.986;6.980;2024-03-23T03:26:39;39.70;;;6.43;;
52708;SDS011;38606;52.986;6.980;2024-03-23T03:29:05;31.20;;;4.97;;
52708;SDS011;38606;52.986;6.980;2024-03-23T03:31:30;30.13;;;5.28;;
52708;SDS011;38606;52.986;6.980;2024-03-23T03:33:56;27.38;;;5.10;;
52708;SDS011;38606;52.986;6.980;2024-03-23T03:36:22;27.15;;;5.13;;
52708;SDS011;38606;52.986;6.980;2024-03-23T03:38:47;41.17;;;5.68;;
52708;SDS011;38606;52.986;6.980;2024-03-23T03:41:13;32.75;;;5.68;;
52708;SDS011;38606;52.986;6.980;2024-03-23T03:43:39;24.90;;;4.82;;
52708;SDS011;38606;52.986;6.980;2024-03-23T03:46:05;37.42;;;4.50;;
52708;SDS011;38606;52.986;6.980;2024-03-23T03:48:33;26.92;;;4.82;;
52708;SDS011;38606;52.986;6.980;2024-03-23T03:50:59;22.55;;;4.82;;
52708;SDS011;38606;52.986;6.980;2024-03-23T03:53:25;29.52;;;5.25;;
52708;SDS011;38606;52.986;6.980;2024-03-23T03:55:51;28.40;;;5.32;;
52708;SDS011;38606;52.986;6.980;2024-03-23T03:58:17;27.73;;;4.72;;
52708;SDS011;38606;52.986;6.980;2024-03-23T04:00:42;27.58;;;4.50;;
52708;SDS011;38606;52.986;6.980;2024-03-23T04:03:08;28.52;;;5.10;;
52708;SDS011;38606;52.986;6.980;2024-03-23T04:05:34;25.88;;;5.07;;
52708;SDS011;38606;52.986;6.980;2024-03-23T04:08:00;32.30;;;5.30;;
52708;SDS011;38606;52.986;6.980;2024-03-23T04:10:25;26.60;;;4.50;;
52708;SDS011;38606;52.986;6.980;2024-03-23T04:12:52;28.67;;;4.90;;
52708;SDS011;38606;52.986;6.980;2024-03-23T04:15:19;43.20;;;5.80;;
52708;SDS011;38606;52.986;6.980;2024-03-23T04:17:45;26.30;;;4.32;;
52708;SDS011;38606;52.986;6.980;2024-03-23T04:20:11;37.22;;;5.20;;
52708;SDS011;38606;52.986;6.980;2024-03-23T04:22:38;36.08;;;5.00;;
52708;SDS011;38606;52.986;6.980;2024-03-23T04:25:05;28.13;;;5.07;;
52708;SDS011;38606;52.986;6.980;2024-03-23T04:27:38;26.20;;;5.55;;
52708;SDS011;38606;52.986;6.980;2024-03-23T04:30:06;34.15;;;4.93;;
52708;SDS011;38606;52.986;6.980;2024-03-23T04:32:39;35.83;;;4.97;;
52708;SDS011;38606;52.986;6.980;2024-03-23T04:35:05;34.05;;;4.63;;
52708;SDS011;38606;52.986;6.980;2024-03-23T04:37:34;25.55;;;4.63;;
52708;SDS011;38606;52.986;6.980;2024-03-23T04:40:00;30.67;;;4.57;;
52708;SDS011;38606;52.986;6.980;2024-03-23T04:42:27;21.30;;;4.70;;
52708;SDS011;38606;52.986;6.980;2024-03-23T04:44:53;28.90;;;4.80;;
52708;SDS011;38606;52.986;6.980;2024-03-23T04:47:19;29.35;;;4.80;;
52708;SDS011;38606;52.986;6.980;2024-03-23T04:49:44;30.10;;;4.80;;
52708;SDS011;38606;52.986;6.980;2024-03-23T04:52:10;37.50;;;5.28;;
52708;SDS011;38606;52.986;6.980;2024-03-23T04:54:37;27.52;;;4.88;;
52708;SDS011;38606;52.986;6.980;2024-03-23T04:57:03;30.08;;;7.15;;
52708;SDS011;38606;52.986;6.980;2024-03-23T04:59:28;36.28;;;4.90;;
52708;SDS011;38606;52.986;6.980;2024-03-23T05:01:54;24.05;;;3.85;;
52708;SDS011;38606;52.986;6.980;2024-03-23T05:04:20;27.75;;;4.72;;
52708;SDS011;38606;52.986;6.980;2024-03-23T05:06:45;23.70;;;4.22;;
52708;SDS011;38606;52.986;6.980;2024-03-23T05:09:11;28.60;;;4.85;;
52708;SDS011;38606;52.986;6.980;2024-03-23T05:11:40;33.22;;;5.43;;
52708;SDS011;38606;52.986;6.980;2024-03-23T05:14:09;23.13;;;4.10;;
52708;SDS011;38606;52.986;6.980;2024-03-23T05:16:34;25.13;;;4.25;;
52708;SDS011;38606;52.986;6.980;2024-03-23T05:19:00;31.35;;;4.70;;
52708;SDS011;38606;52.986;6.980;2024-03-23T05:21:26;24.08;;;3.90;;
52708;SDS011;38606;52.986;6.980;2024-03-23T05:23:53;25.15;;;4.07;;
52708;SDS011;38606;52.986;6.980;2024-03-23T05:26:19;26.48;;;4.35;;
52708;SDS011;38606;52.986;6.980;2024-03-23T05:28:45;23.27;;;4.60;;
52708;SDS011;38606;52.986;6.980;2024-03-23T05:31:11;26.80;;;4.40;;
52708;SDS011;38606;52.986;6.980;2024-03-23T05:33:36;21.77;;;4.45;;
52708;SDS011;38606;52.986;6.980;2024-03-23T05:36:03;24.02;;;4.82;;
52708;SDS011;38606;52.986;6.980;2024-03-23T05:38:29;17.85;;;4.32;;
52708;SDS011;38606;52.986;6.980;2024-03-23T05:40:56;25.42;;;4.22;;
52708;SDS011;38606;52.986;6.980;2024-03-23T05:43:25;32.78;;;5.32;;
52708;SDS011;38606;52.986;6.980;2024-03-23T05:45:57;27.15;;;4.78;;
52708;SDS011;38606;52.986;6.980;2024-03-23T05:50:55;26.23;;;4.82;;
52708;SDS011;38606;52.986;6.980;2024-03-23T05:53:21;25.08;;;4.57;;
52708;SDS011;38606;52.986;6.980;2024-03-23T05:55:49;15.77;;;3.85;;
52708;SDS011;38606;52.986;6.980;2024-03-23T05:58:16;23.23;;;4.38;;
52708;SDS011;38606;52.986;6.980;2024-03-23T06:00:42;19.23;;;3.53;;
52708;SDS011;38606;52.986;6.980;2024-03-23T06:03:08;23.27;;;4.05;;
52708;SDS011;38606;52.986;6.980;2024-03-23T06:05:35;29.27;;;4.35;;
52708;SDS011;38606;52.986;6.980;2024-03-23T06:08:01;22.10;;;4.55;;
52708;SDS011;38606;52.986;6.980;2024-03-23T06:10:27;21.88;;;4.05;;
52708;SDS011;38606;52.986;6.980;2024-03-23T06:12:53;20.60;;;3.83;;
52708;SDS011;38606;52.986;6.980;2024-03-23T06:15:19;20.10;;;4.13;;
52708;SDS011;38606;52.986;6.980;2024-03-23T06:17:45;17.00;;;4.65;;
52708;SDS011;38606;52.986;6.980;2024-03-23T06:20:11;28.25;;;4.20;;
52708;SDS011;38606;52.986;6.980;2024-03-23T06:22:37;36.28;;;6.40;;
52708;SDS011;38606;52.986;6.980;2024-03-23T06:25:04;21.58;;;4.28;;
52708;SDS011;38606;52.986;6.980;2024-03-23T06:27:30;28.70;;;4.35;;
52708;SDS011;38606;52.986;6.980;2024-03-23T06:29:57;24.90;;;3.75;;
52708;SDS011;38606;52.986;6.980;2024-03-23T06:32:27;21.70;;;3.83;;
52708;SDS011;38606;52.986;6.980;2024-03-23T06:34:54;22.90;;;4.20;;
52708;SDS011;38606;52.986;6.980;2024-03-23T06:37:20;22.05;;;3.70;;
52708;SDS011;38606;52.986;6.980;2024-03-23T06:39:46;28.52;;;4.40;;
52708;SDS011;38606;52.986;6.980;2024-03-23T06:42:12;19.23;;;3.67;;
52708;SDS011;38606;52.986;6.980;2024-03-23T06:44:38;23.52;;;4.43;;
52708;SDS011;38606;52.986;6.980;2024-03-23T06:47:04;19.40;;;3.88;;
52708;SDS011;38606;52.986;6.980;2024-03-23T06:49:30;28.83;;;4.63;;
52708;SDS011;38606;52.986;6.980;2024-03-23T06:51:56;29.45;;;4.55;;
52708;SDS011;38606;52.986;6.980;2024-03-23T06:54:21;14.30;;;3.25;;
52708;SDS011;38606;52.986;6.980;2024-03-23T06:56:47;19.50;;;2.97;;
52708;SDS011;38606;52.986;6.980;2024-03-23T06:59:13;17.45;;;3.05;;
52708;SDS011;38606;52.986;6.980;2024-03-23T07:01:38;18.65;;;2.60;;
52708;SDS011;38606;52.986;6.980;2024-03-23T07:04:04;19.17;;;3.95;;
52708;SDS011;38606;52.986;6.980;2024-03-23T07:06:30;12.98;;;2.40;;
52708;SDS011;38606;52.986;6.980;2024-03-23T07:08:56;14.13;;;3.13;;
52708;SDS011;38606;52.986;6.980;2024-03-23T07:11:22;11.30;;;2.47;;
52708;SDS011;38606;52.986;6.980;2024-03-23T07:13:52;12.57;;;2.22;;
52708;SDS011;38606;52.986;6.980;2024-03-23T07:16:19;12.77;;;2.22;;
52708;SDS011;38606;52.986;6.980;2024-03-23T07:18:45;9.73;;;2.53;;
52708;SDS011;38606;52.986;6.980;2024-03-23T07:21:11;11.45;;;2.33;;
52708;SDS011;38606;52.986;6.980;2024-03-23T07:23:37;11.52;;;2.70;;
52708;SDS011;38606;52.986;6.980;2024-03-23T07:26:03;11.85;;;2.10;;
52708;SDS011;38606;52.986;6.980;2024-03-23T07:28:30;8.85;;;2.10;;
52708;SDS011;38606;52.986;6.980;2024-03-23T07:31:10;4.85;;;1.73;;
52708;SDS011;38606;52.986;6.980;2024-03-23T07:33:37;10.13;;;1.67;;
52708;SDS011;38606;52.986;6.980;2024-03-23T07:36:06;7.85;;;2.00;;
52708;SDS011;38606;52.986;6.980;2024-03-23T07:38:32;13.77;;;2.15;;
52708;SDS011;38606;52.986;6.980;2024-03-23T07:43:30;9.50;;;1.92;;
52708;SDS011;38606;52.986;6.980;2024-03-23T07:45:55;10.43;;;1.55;;
52708;SDS011;38606;52.986;6.980;2024-03-23T07:48:21;10.73;;;1.85;;
52708;SDS011;38606;52.986;6.980;2024-03-23T07:53:35;7.30;;;2.30;;
52708;SDS011;38606;52.986;6.980;2024-03-23T07:56:04;6.50;;;1.50;;
52708;SDS011;38606;52.986;6.980;2024-03-23T07:58:31;9.57;;;1.77;;
52708;SDS011;38606;52.986;6.980;2024-03-23T08:01:03;10.80;;;1.70;;
52708;SDS011;38606;52.986;6.980;2024-03-23T08:03:30;5.57;;;2.35;;
52708;SDS011;38606;52.986;6.980;2024-03-23T08:05:56;9.38;;;1.50;;
52708;SDS011;38606;52.986;6.980;2024-03-23T08:08:21;5.25;;;1.65;;
52708;SDS011;38606;52.986;6.980;2024-03-23T08:10:48;9.68;;;2.22;;
52708;SDS011;38606;52.986;6.980;2024-03-23T08:13:17;12.70;;;2.53;;
52708;SDS011;38606;52.986;6.980;2024-03-23T08:15:44;10.45;;;2.67;;
52708;SDS011;38606;52.986;6.980;2024-03-23T08:18:11;11.40;;;2.22;;
52708;SDS011;38606;52.986;6.980;2024-03-23T08:20:37;14.13;;;2.28;;
52708;SDS011;38606;52.986;6.980;2024-03-23T08:23:03;16.67;;;2.50;;
52708;SDS011;38606;52.986;6.980;2024-03-23T08:25:31;9.98;;;2.00;;
52708;SDS011;38606;52.986;6.980;2024-03-23T08:27:57;17.55;;;2.53;;
52708;SDS011;38606;52.986;6.980;2024-03-23T08:30:23;10.43;;;2.78;;
52708;SDS011;38606;52.986;6.980;2024-03-23T08:32:49;13.07;;;3.00;;
52708;SDS011;38606;52.986;6.980;2024-03-23T08:35:14;10.68;;;2.28;;
52708;SDS011;38606;52.986;6.980;2024-03-23T08:37:40;10.25;;;2.28;;
52708;SDS011;38606;52.986;6.980;2024-03-23T08:40:06;7.53;;;1.75;;
52708;SDS011;38606;52.986;6.980;2024-03-23T08:42:33;9.20;;;1.77;;
52708;SDS011;38606;52.986;6.980;2024-03-23T08:44:59;8.52;;;1.70;;
52708;SDS011;38606;52.986;6.980;2024-03-23T08:47:25;7.72;;;1.50;;
52708;SDS011;38606;52.986;6.980;2024-03-23T08:49:50;8.77;;;1.50;;
52708;SDS011;38606;52.986;6.980;2024-03-23T08:52:16;5.25;;;1.73;;
52708;SDS011;38606;52.986;6.980;2024-03-23T08:54:42;5.28;;;1.40;;
52708;SDS011;38606;52.986;6.980;2024-03-23T08:57:08;7.45;;;1.45;;
52708;SDS011;38606;52.986;6.980;2024-03-23T08:59:34;10.82;;;1.90;;
52708;SDS011;38606;52.986;6.980;2024-03-23T09:02:00;10.20;;;1.58;;
52708;SDS011;38606;52.986;6.980;2024-03-23T09:04:25;8.00;;;1.80;;
52708;SDS011;38606;52.986;6.980;2024-03-23T09:06:51;9.15;;;1.50;;
52708;SDS011;38606;52.986;6.980;2024-03-23T09:09:17;10.82;;;2.28;;
52708;SDS011;38606;52.986;6.980;2024-03-23T09:11:43;6.72;;;1.42;;
52708;SDS011;38606;52.986;6.980;2024-03-23T09:14:08;8.75;;;2.08;;
52708;SDS011;38606;52.986;6.980;2024-03-23T09:16:34;13.60;;;3.38;;
52708;SDS011;38606;52.986;6.980;2024-03-23T09:19:00;7.50;;;1.50;;
52708;SDS011;38606;52.986;6.980;2024-03-23T09:21:26;8.20;;;1.80;;
52708;SDS011;38606;52.986;6.980;2024-03-23T09:23:52;9.73;;;1.90;;
52708;SDS011;38606;52.986;6.980;2024-03-23T09:26:17;5.55;;;1.52;;
52708;SDS011;38606;52.986;6.980;2024-03-23T09:28:43;10.80;;;1.90;;
52708;SDS011;38606;52.986;6.980;2024-03-23T09:31:09;12.38;;;2.10;;
52708;SDS011;38606;52.986;6.980;2024-03-23T09:33:39;11.98;;;1.92;;
52708;SDS011;38606;52.986;6.980;2024-03-23T09:36:05;9.40;;;1.60;;
52708;SDS011;38606;52.986;6.980;2024-03-23T09:38:31;10.20;;;1.67;;
52708;SDS011;38606;52.986;6.980;2024-03-23T09:40:58;10.77;;;1.90;;
52708;SDS011;38606;52.986;6.980;2024-03-23T09:43:24;13.15;;;1.92;;
52708;SDS011;38606;52.986;6.980;2024-03-23T09:45:50;12.82;;;2.25;;
52708;SDS011;38606;52.986;6.980;2024-03-23T09:48:17;10.27;;;1.90;;
52708;SDS011;38606;52.986;6.980;2024-03-23T09:50:43;9.27;;;2.10;;
52708;SDS011;38606;52.986;6.980;2024-03-23T09:53:11;10.73;;;1.90;;
52708;SDS011;38606;52.986;6.980;2024-03-23T09:55:38;8.98;;;1.95;;
52708;SDS011;38606;52.986;6.980;2024-03-23T09:58:05;7.63;;;1.75;;
52708;SDS011;38606;52.986;6.980;2024-03-23T10:00:31;9.02;;;1.90;;
52708;SDS011;38606;52.986;6.980;2024-03-23T10:02:58;9.05;;;2.03;;
52708;SDS011;38606;52.986;6.980;2024-03-23T10:05:27;6.32;;;1.85;;
52708;SDS011;38606;52.986;6.980;2024-03-23T10:07:54;10.48;;;2.00;;
52708;SDS011;38606;52.986;6.980;2024-03-23T10:10:20;7.28;;;1.70;;
52708;SDS011;38606;52.986;6.980;2024-03-23T10:12:49;9.02;;;1.92;;
52708;SDS011;38606;52.986;6.980;2024-03-23T10:15:24;9.48;;;2.10;;
52708;SDS011;38606;52.986;6.980;2024-03-23T10:17:50;11.03;;;2.10;;
52708;SDS011;38606;52.986;6.980;2024-03-23T10:20:21;18.13;;;2.25;;
52708;SDS011;38606;52.986;6.980;2024-03-23T10:22:48;12.77;;;1.92;;
52708;SDS011;38606;52.986;6.980;2024-03-23T10:25:16;10.90;;;1.60;;
52708;SDS011;38606;52.986;6.980;2024-03-23T10:27:42;10.63;;;2.13;;
52708;SDS011;38606;52.986;6.980;2024-03-23T10:30:09;9.82;;;2.15;;
52708;SDS011;38606;52.986;6.980;2024-03-23T10:32:36;12.55;;;2.35;;
52708;SDS011;38606;52.986;6.980;2024-03-23T10:35:18;11.00;;;1.92;;
52708;SDS011;38606;52.986;6.980;2024-03-23T10:37:48;10.25;;;1.30;;
52708;SDS011;38606;52.986;6.980;2024-03-23T10:40:15;9.25;;;1.58;;
52708;SDS011;38606;52.986;6.980;2024-03-23T10:42:41;8.57;;;1.60;;
52708;SDS011;38606;52.986;6.980;2024-03-23T10:45:07;8.50;;;1.75;;
52708;SDS011;38606;52.986;6.980;2024-03-23T10:47:34;6.72;;;1.75;;
52708;SDS011;38606;52.986;6.980;2024-03-23T10:50:04;6.38;;;1.55;;
52708;SDS011;38606;52.986;6.980;2024-03-23T10:52:33;7.47;;;1.52;;
52708;SDS011;38606;52.986;6.980;2024-03-23T10:54:59;8.48;;;1.55;;
52708;SDS011;38606;52.986;6.980;2024-03-23T10:58:11;9.45;;;1.73;;
52708;SDS011;38606;52.986;6.980;2024-03-23T11:00:19;9.45;;;1.58;;
52708;SDS011;38606;52.986;6.980;2024-03-23T11:02:47;6.95;;;1.42;;
52708;SDS011;38606;52.986;6.980;2024-03-23T11:07:52;8.48;;;1.60;;
52708;SDS011;38606;52.986;6.980;2024-03-23T11:10:25;7.85;;;1.95;;
52708;SDS011;38606;52.986;6.980;2024-03-23T11:12:54;8.95;;;2.08;;
52708;SDS011;38606;52.986;6.980;2024-03-23T11:15:20;10.57;;;1.95;;
52708;SDS011;38606;52.986;6.980;2024-03-23T11:18:07;4.10;;;1.50;;
52708;SDS011;38606;52.986;6.980;2024-03-23T11:20:36;11.68;;;1.40;;
52708;SDS011;38606;52.986;6.980;2024-03-23T11:23:01;10.63;;;1.52;;
52708;SDS011;38606;52.986;6.980;2024-03-23T11:25:28;5.47;;;1.33;;
52708;SDS011;38606;52.986;6.980;2024-03-23T11:27:55;4.10;;;0.98;;
52708;SDS011;38606;52.986;6.980;2024-03-23T11:30:25;6.90;;;1.00;;
52708;SDS011;38606;52.986;6.980;2024-03-23T11:32:55;4.13;;;0.70;;
52708;SDS011;38606;52.986;6.980;2024-03-23T11:40:37;5.82;;;1.10;;
52708;SDS011;38606;52.986;6.980;2024-03-23T11:43:08;3.08;;;0.90;;
52708;SDS011;38606;52.986;6.980;2024-03-23T11:45:38;7.45;;;1.38;;
52708;SDS011;38606;52.986;6.980;2024-03-23T11:48:15;2.70;;;0.90;;
52708;SDS011;38606;52.986;6.980;2024-03-23T11:50:58;5.28;;;1.33;;
52708;SDS011;38606;52.986;6.980;2024-03-23T11:53:24;6.93;;;1.48;;
52708;SDS011;38606;52.986;6.980;2024-03-23T11:55:53;6.15;;;1.23;;
52708;SDS011;38606;52.986;6.980;2024-03-23T11:58:20;7.88;;;1.27;;
52708;SDS011;38606;52.986;6.980;2024-03-23T12:03:23;6.80;;;1.10;;
52708;SDS011;38606;52.986;6.980;2024-03-23T12:05:54;11.27;;;1.88;;
52708;SDS011;38606;52.986;6.980;2024-03-23T12:10:52;4.75;;;1.10;;
52708;SDS011;38606;52.986;6.980;2024-03-23T12:13:29;5.53;;;1.10;;
52708;SDS011;38606;52.986;6.980;2024-03-23T12:15:54;3.17;;;0.95;;
52708;SDS011;38606;52.986;6.980;2024-03-23T12:18:33;7.53;;;1.55;;
52708;SDS011;38606;52.986;6.980;2024-03-23T12:20:59;7.22;;;1.20;;
52708;SDS011;38606;52.986;6.980;2024-03-23T12:23:25;9.95;;;1.40;;
52708;SDS011;38606;52.986;6.980;2024-03-23T12:25:51;6.13;;;1.60;;
52708;SDS011;38606;52.986;6.980;2024-03-23T12:28:16;6.25;;;1.27;;
52708;SDS011;38606;52.986;6.980;2024-03-23T12:30:42;9.20;;;1.27;;
52708;SDS011;38606;52.986;6.980;2024-03-23T12:33:08;4.25;;;1.23;;
52708;SDS011;38606;52.986;6.980;2024-03-23T12:35:34;1.73;;;0.70;;
52708;SDS011;38606;52.986;6.980;2024-03-23T12:38:00;6.40;;;0.98;;
52708;SDS011;38606;52.986;6.980;2024-03-23T12:40:25;6.05;;;1.08;;
52708;SDS011;38606;52.986;6.980;2024-03-23T12:42:54;3.53;;;0.93;;
52708;SDS011;38606;52.986;6.980;2024-03-23T12:45:21;4.20;;;1.10;;
52708;SDS011;38606;52.986;6.980;2024-03-23T12:47:47;5.93;;;1.48;;
52708;SDS011;38606;52.986;6.980;2024-03-23T12:50:13;4.50;;;1.10;;
52708;SDS011;38606;52.986;6.980;2024-03-23T12:52:38;11.48;;;1.30;;
52708;SDS011;38606;52.986;6.980;2024-03-23T12:55:04;3.10;;;1.00;;
52708;SDS011;38606;52.986;6.980;2024-03-23T12:57:33;4.97;;;1.23;;
52708;SDS011;38606;52.986;6.980;2024-03-23T12:59:59;7.63;;;1.17;;
52708;SDS011;38606;52.986;6.980;2024-03-23T13:02:25;6.55;;;1.50;;
52708;SDS011;38606;52.986;6.980;2024-03-23T13:04:51;10.27;;;1.83;;
52708;SDS011;38606;52.986;6.980;2024-03-23T13:07:18;9.05;;;1.95;;
52708;SDS011;38606;52.986;6.980;2024-03-23T13:09:45;10.63;;;1.83;;
52708;SDS011;38606;52.986;6.980;2024-03-23T13:12:11;10.50;;;1.90;;
52708;SDS011;38606;52.986;6.980;2024-03-23T13:14:39;12.32;;;2.47;;
52708;SDS011;38606;52.986;6.980;2024-03-23T13:17:06;10.73;;;2.00;;
52708;SDS011;38606;52.986;6.980;2024-03-23T13:19:32;12.52;;;1.90;;
52708;SDS011;38606;52.986;6.980;2024-03-23T13:21:58;12.50;;;2.50;;
52708;SDS011;38606;52.986;6.980;2024-03-23T13:24:25;7.68;;;1.45;;
52708;SDS011;38606;52.986;6.980;2024-03-23T13:26:52;5.80;;;1.52;;
52708;SDS011;38606;52.986;6.980;2024-03-23T13:29:19;11.27;;;1.75;;
52708;SDS011;38606;52.986;6.980;2024-03-23T13:31:48;9.50;;;1.63;;
52708;SDS011;38606;52.986;6.980;2024-03-23T13:34:14;7.82;;;1.77;;
52708;SDS011;38606;52.986;6.980;2024-03-23T13:36:41;10.35;;;2.13;;
52708;SDS011;38606;52.986;6.980;2024-03-23T13:39:07;7.13;;;1.58;;
52708;SDS011;38606;52.986;6.980;2024-03-23T13:41:39;6.57;;;1.35;;
52708;SDS011;38606;52.986;6.980;2024-03-23T13:44:06;8.88;;;1.35;;
52708;SDS011;38606;52.986;6.980;2024-03-23T13:46:32;8.70;;;1.73;;
52708;SDS011;38606;52.986;6.980;2024-03-23T13:48:58;9.48;;;1.60;;
52708;SDS011;38606;52.986;6.980;2024-03-23T13:51:25;9.07;;;1.88;;
52708;SDS011;38606;52.986;6.980;2024-03-23T13:53:54;8.60;;;2.15;;
52708;SDS011;38606;52.986;6.980;2024-03-23T13:56:21;11.48;;;1.98;;
52708;SDS011;38606;52.986;6.980;2024-03-23T13:58:47;5.47;;;1.67;;
52708;SDS011;38606;52.986;6.980;2024-03-23T14:01:14;9.95;;;1.80;;
52708;SDS011;38606;52.986;6.980;2024-03-23T14:03:40;11.43;;;2.10;;
52708;SDS011;38606;52.986;6.980;2024-03-23T14:06:07;13.80;;;2.00;;
52708;SDS011;38606;52.986;6.980;2024-03-23T14:08:33;13.57;;;1.88;;
52708;SDS011;38606;52.986;6.980;2024-03-23T14:11:01;13.68;;;2.05;;
52708;SDS011;38606;52.986;6.980;2024-03-23T14:13:28;13.18;;;1.85;;
52708;SDS011;38606;52.986;6.980;2024-03-23T14:15:54;10.82;;;2.15;;
52708;SDS011;38606;52.986;6.980;2024-03-23T14:18:20;10.77;;;2.10;;
52708;SDS011;38606;52.986;6.980;2024-03-23T14:20:47;11.20;;;2.25;;
52708;SDS011;38606;52.986;6.980;2024-03-23T14:23:13;14.55;;;2.00;;
52708;SDS011;38606;52.986;6.980;2024-03-23T14:25:39;9.90;;;2.47;;
52708;SDS011;38606;52.986;6.980;2024-03-23T14:28:05;13.40;;;2.47;;
52708;SDS011;38606;52.986;6.980;2024-03-23T14:30:31;11.35;;;2.30;;
52708;SDS011;38606;52.986;6.980;2024-03-23T14:32:57;8.30;;;1.77;;
52708;SDS011;38606;52.986;6.980;2024-03-23T14:35:22;12.57;;;2.70;;
52708;SDS011;38606;52.986;6.980;2024-03-23T14:37:48;12.00;;;2.03;;
52708;SDS011;38606;52.986;6.980;2024-03-23T14:40:14;9.15;;;2.30;;
52708;SDS011;38606;52.986;6.980;2024-03-23T14:42:40;10.70;;;2.45;;
52708;SDS011;38606;52.986;6.980;2024-03-23T14:45:06;12.30;;;2.40;;
52708;SDS011;38606;52.986;6.980;2024-03-23T14:47:33;8.32;;;1.85;;
52708;SDS011;38606;52.986;6.980;2024-03-23T14:49:59;10.57;;;2.65;;
52708;SDS011;38606;52.986;6.980;2024-03-23T14:52:26;10.02;;;2.00;;
52708;SDS011;38606;52.986;6.980;2024-03-23T14:54:51;10.32;;;2.10;;
52708;SDS011;38606;52.986;6.980;2024-03-23T14:57:17;12.30;;;1.90;;
52708;SDS011;38606;52.986;6.980;2024-03-23T14:59:45;10.48;;;1.60;;
52708;SDS011;38606;52.986;6.980;2024-03-23T15:02:10;15.20;;;1.95;;
52708;SDS011;38606;52.986;6.980;2024-03-23T15:04:37;14.27;;;2.22;;
52708;SDS011;38606;52.986;6.980;2024-03-23T15:07:05;10.27;;;1.83;;
52708;SDS011;38606;52.986;6.980;2024-03-23T15:09:31;15.40;;;2.17;;
52708;SDS011;38606;52.986;6.980;2024-03-23T15:11:57;15.23;;;2.63;;
52708;SDS011;38606;52.986;6.980;2024-03-23T15:14:23;14.52;;;2.72;;
52708;SDS011;38606;52.986;6.980;2024-03-23T15:16:49;13.77;;;2.40;;
52708;SDS011;38606;52.986;6.980;2024-03-23T15:19:16;12.65;;;2.22;;
52708;SDS011;38606;52.986;6.980;2024-03-23T15:21:42;13.40;;;2.28;;
52708;SDS011;38606;52.986;6.980;2024-03-23T15:24:08;6.07;;;1.30;;
52708;SDS011;38606;52.986;6.980;2024-03-23T15:26:36;10.32;;;1.67;;
52708;SDS011;38606;52.986;6.980;2024-03-23T15:29:02;6.97;;;1.30;;
52708;SDS011;38606;52.986;6.980;2024-03-23T15:31:28;7.20;;;1.30;;
52708;SDS011;38606;52.986;6.980;2024-03-23T15:33:57;10.90;;;1.40;;
52708;SDS011;38606;52.986;6.980;2024-03-23T15:36:23;6.88;;;1.50;;
52708;SDS011;38606;52.986;6.980;2024-03-23T15:38:49;6.90;;;1.30;;
52708;SDS011;38606;52.986;6.980;2024-03-23T15:41:14;12.55;;;1.52;;
52708;SDS011;38606;52.986;6.980;2024-03-23T15:43:40;6.38;;;1.42;;
52708;SDS011;38606;52.986;6.980;2024-03-23T15:46:06;9.40;;;1.40;;
52708;SDS011;38606;52.986;6.980;2024-03-23T15:48:33;5.75;;;1.50;;